Time;durP1;ratioP1;P1;durP2;ratioP2;P2;SDS_P1;SDS_P2;PMS_P1;PMS_P2;Temp;Humidity;BMP_temperature;BMP_pressure;BME280_temperature;BME280_humidity;BME280_pressure;Samples;Min_cycle;Max_cycle;Signal;HPM_P1;HPM_P2
2022/06/18 00:01:53;;;;;;;2.63;2.43;;;17.20;99.90;;;;;;5013357;28;20207;-76
2022/06/18 00:04:21;;;;;;;3.80;3.07;;;17.20;99.90;;;;;;5022105;28;20442;-76
2022/06/18 00:07:02;;;;;;;2.87;2.67;;;17.10;99.90;;;;;;5013615;28;20182;-75
2022/06/18 00:09:36;;;;;;;2.37;2.17;;;17.10;99.90;;;;;;5015727;28;20962;-77
2022/06/18 00:15:13;;;;;;;3.83;2.80;;;17.10;99.90;;;;;;5016566;28;20815;-76
2022/06/18 00:17:39;;;;;;;3.40;3.07;;;17.10;99.90;;;;;;5013429;28;20424;-75
2022/06/18 00:20:05;;;;;;;2.70;2.50;;;17.10;99.90;;;;;;5013847;28;20434;-75
2022/06/18 00:22:31;;;;;;;3.03;2.83;;;17.10;99.90;;;;;;5013016;28;20617;-76
2022/06/18 00:24:56;;;;;;;3.63;2.90;;;17.00;99.90;;;;;;5020841;28;20443;-76
2022/06/18 00:27:22;;;;;;;3.03;2.73;;;17.00;99.90;;;;;;5012910;28;20186;-76
2022/06/18 00:29:49;;;;;;;3.93;3.20;;;17.00;99.90;;;;;;5014594;28;20210;-76
2022/06/18 00:32:15;;;;;;;3.97;3.00;;;17.00;99.90;;;;;;5012910;28;20198;-76
2022/06/18 00:34:41;;;;;;;3.13;2.93;;;16.90;99.90;;;;;;5017167;28;20425;-76
2022/06/18 00:37:09;;;;;;;2.70;2.53;;;16.90;99.90;;;;;;5016197;28;20553;-76
2022/06/18 00:39:35;;;;;;;3.40;2.80;;;16.90;99.90;;;;;;5015384;28;20197;-76
2022/06/18 00:42:07;;;;;;;3.67;3.10;;;16.90;99.90;;;;;;5013907;28;20984;-76
2022/06/18 00:44:34;;;;;;;2.97;2.47;;;16.90;99.90;;;;;;5014174;28;20201;-75
2022/06/18 00:47:16;;;;;;;5.87;2.77;;;16.90;99.90;;;;;;5022087;28;20551;-76
2022/06/18 00:50:03;;;;;;;5.10;3.40;;;16.80;99.90;;;;;;5032550;28;20460;-76
2022/06/18 00:52:35;;;;;;;7.77;3.10;;;16.80;99.90;;;;;;5012669;28;20508;-76
2022/06/18 00:55:14;;;;;;;4.73;3.30;;;16.80;99.90;;;;;;5012587;28;20401;-76
2022/06/18 00:57:45;;;;;;;2.67;2.57;;;16.70;99.90;;;;;;5014616;28;20968;-75
2022/06/18 02:30:55;;;;;;;3.40;3.10;;;16.10;99.90;;;;;;6056121;22;20389;-73
2022/06/18 02:33:29;;;;;;;3.67;3.37;;;16.00;99.90;;;;;;5024172;28;20448;-75
2022/06/18 02:35:58;;;;;;;3.30;3.03;;;16.00;99.90;;;;;;5031206;28;20522;-75
2022/06/18 02:38:24;;;;;;;3.43;3.10;;;16.00;99.90;;;;;;5033726;28;20419;-75
2022/06/18 02:40:50;;;;;;;3.40;3.10;;;15.90;99.90;;;;;;5031172;28;20433;-76
2022/06/18 02:43:18;;;;;;;3.57;3.23;;;15.90;99.90;;;;;;5029303;28;20204;-75
2022/06/18 02:45:47;;;;;;;4.53;3.70;;;15.90;99.90;;;;;;5026717;28;20197;-75
2022/06/18 02:48:13;;;;;;;3.23;3.03;;;15.90;99.90;;;;;;5035062;28;20420;-75
2022/06/18 02:50:41;;;;;;;3.60;3.20;;;15.90;99.90;;;;;;5027230;28;20843;-75
2022/06/18 02:53:09;;;;;;;6.73;3.00;;;15.90;99.90;;;;;;4998986;28;20218;-75
2022/06/18 02:55:42;;;;;;;3.83;3.40;;;15.90;99.90;;;;;;4999609;28;20445;-75
2022/06/18 02:58:14;;;;;;;3.40;3.10;;;15.90;99.90;;;;;;5028807;28;20445;-75
2022/06/18 03:00:42;;;;;;;4.40;3.20;;;15.80;99.90;;;;;;5014415;28;20437;-75
2022/06/18 03:03:11;;;;;;;4.40;4.00;;;15.80;99.90;;;;;;5000405;28;20466;-75
2022/06/18 03:05:37;;;;;;;3.80;3.50;;;15.80;99.90;;;;;;4995988;28;20501;-75
2022/06/18 03:08:03;;;;;;;5.03;3.70;;;15.80;99.90;;;;;;5015005;28;20417;-75
2022/06/18 03:13:13;;;;;;;3.37;3.10;;;15.80;99.90;;;;;;5003478;28;20442;-75
2022/06/18 03:15:38;;;;;;;3.57;3.37;;;15.70;99.90;;;;;;5034673;28;20417;-76
2022/06/18 03:18:06;;;;;;;3.10;2.90;;;15.70;99.90;;;;;;5030387;28;20269;-75
2022/06/18 03:20:48;;;;;;;4.10;3.03;;;15.70;99.90;;;;;;5034843;28;20205;-75
2022/06/18 03:23:16;;;;;;;4.20;3.30;;;15.60;99.90;;;;;;5016896;28;20502;-75
2022/06/18 03:25:42;;;;;;;7.60;3.40;;;15.70;99.90;;;;;;5034493;28;20477;-75
2022/06/18 03:28:11;;;;;;;4.80;3.30;;;15.60;99.90;;;;;;5006772;28;20442;-75
2022/06/18 03:30:39;;;;;;;3.00;2.70;;;15.60;99.90;;;;;;4994913;28;20902;-74
2022/06/18 03:33:05;;;;;;;4.20;3.80;;;15.60;99.90;;;;;;5005889;28;20444;-75
2022/06/18 03:35:31;;;;;;;5.33;3.13;;;15.60;99.90;;;;;;5033102;28;20917;-76
2022/06/18 03:37:56;;;;;;;4.80;3.70;;;15.60;99.90;;;;;;5024050;28;20437;-75
2022/06/18 03:40:22;;;;;;;6.17;2.80;;;15.50;99.90;;;;;;5014640;28;20236;-76
2022/06/18 03:42:48;;;;;;;3.30;3.00;;;15.60;99.90;;;;;;5009814;28;20210;-76
2022/06/18 03:45:13;;;;;;;3.20;3.00;;;15.50;99.90;;;;;;5014150;28;20190;-75
2022/06/18 03:47:39;;;;;;;3.47;3.17;;;15.50;99.90;;;;;;5011554;28;20196;-76
2022/06/18 03:50:05;;;;;;;3.53;3.30;;;15.60;99.90;;;;;;4994512;28;20242;-76
2022/06/18 03:52:31;;;;;;;3.77;3.47;;;15.60;99.90;;;;;;4994408;28;20218;-75
2022/06/18 03:54:56;;;;;;;3.70;3.33;;;15.60;99.90;;;;;;4995569;28;20438;-76
2022/06/18 03:57:22;;;;;;;3.67;3.30;;;15.70;99.90;;;;;;4994580;28;20183;-75
2022/06/18 03:59:48;;;;;;;5.40;3.50;;;15.70;99.90;;;;;;5012476;28;20660;-74
2022/06/18 04:02:14;;;;;;;4.00;3.60;;;15.70;99.90;;;;;;5013941;28;20202;-76
2022/06/18 04:04:40;;;;;;;4.70;3.50;;;15.80;99.90;;;;;;5012634;28;20443;-76
2022/06/18 04:07:06;;;;;;;3.97;3.40;;;15.90;99.90;;;;;;5013877;28;20429;-75
2022/06/18 04:09:32;;;;;;;3.67;3.10;;;15.90;99.90;;;;;;5011615;28;20209;-75
2022/06/18 04:11:58;;;;;;;3.20;3.00;;;16.00;99.90;;;;;;5013785;28;20437;-75
2022/06/18 04:14:24;;;;;;;5.60;3.70;;;16.10;99.90;;;;;;4999084;28;20226;-76
2022/06/18 04:16:50;;;;;;;2.73;2.63;;;16.20;99.90;;;;;;4994043;28;20813;-75
2022/06/18 04:19:15;;;;;;;3.70;3.17;;;16.30;99.90;;;;;;4998197;28;20841;-75
2022/06/18 04:21:41;;;;;;;7.03;3.43;;;16.40;99.90;;;;;;5013495;28;20205;-76
2022/06/18 04:24:06;;;;;;;4.10;3.67;;;16.50;99.90;;;;;;5013413;28;20175;-75
2022/06/18 04:26:32;;;;;;;3.63;3.13;;;16.60;99.90;;;;;;5013323;28;20659;-75
2022/06/18 04:28:58;;;;;;;2.80;2.70;;;16.70;99.90;;;;;;5003150;28;20198;-75
2022/06/18 04:31:23;;;;;;;4.20;3.00;;;16.80;99.90;;;;;;5023307;28;20305;-76
2022/06/18 04:33:49;;;;;;;3.00;2.80;;;16.90;99.90;;;;;;5009447;28;20224;-75
2022/06/18 04:36:30;;;;;;;3.57;3.27;;;17.10;99.90;;;;;;5019625;28;20178;-75
2022/06/18 04:38:55;;;;;;;3.77;3.30;;;17.20;99.90;;;;;;5015210;28;20652;-76
2022/06/18 04:41:20;;;;;;;4.20;3.90;;;17.40;99.90;;;;;;4999917;28;20458;-76
2022/06/18 04:43:46;;;;;;;3.40;3.17;;;17.60;99.90;;;;;;5004068;28;20193;-75
2022/06/18 04:46:11;;;;;;;5.77;3.70;;;17.70;99.90;;;;;;4995018;28;20596;-76
2022/06/18 04:48:37;;;;;;;5.40;3.93;;;17.80;99.90;;;;;;4993620;28;20186;-75
2022/06/18 04:51:03;;;;;;;3.80;3.07;;;18.00;99.90;;;;;;5007222;28;20248;-76
2022/06/18 04:53:29;;;;;;;3.87;3.53;;;18.20;99.90;;;;;;5033928;28;20178;-76
2022/06/18 04:55:54;;;;;;;3.70;3.30;;;18.40;99.90;;;;;;5023378;28;20226;-75
2022/06/18 04:58:20;;;;;;;6.10;3.80;;;18.60;99.90;;;;;;4995752;28;20946;-75
2022/06/18 05:00:45;;;;;;;3.73;3.33;;;18.90;99.90;;;;;;4995147;28;20175;-75
2022/06/18 05:03:17;;;;;;;6.17;3.70;;;19.90;99.90;;;;;;5030720;28;20193;-76
2022/06/18 05:05:42;;;;;;;3.60;3.30;;;21.40;99.90;;;;;;5033151;28;20631;-75
2022/06/18 05:08:08;;;;;;;3.50;3.20;;;22.80;99.90;;;;;;5009845;28;20428;-75
2022/06/18 05:10:33;;;;;;;3.53;3.23;;;24.30;99.90;;;;;;5032659;28;20209;-75
2022/06/18 05:13:00;;;;;;;3.70;3.10;;;25.40;99.90;;;;;;5031362;28;20265;-76
2022/06/18 05:15:25;;;;;;;3.20;3.00;;;26.00;99.90;;;;;;5012046;28;20232;-75
2022/06/18 05:17:51;;;;;;;4.63;2.80;;;26.80;99.90;;;;;;5010786;28;20997;-76
2022/06/18 05:20:23;;;;;;;3.87;3.53;;;27.10;99.90;;;;;;5012849;28;20176;-76
2022/06/18 05:22:49;;;;;;;5.00;3.07;;;27.50;99.90;;;;;;5012574;28;20206;-76
2022/06/18 05:25:15;;;;;;;3.23;2.50;;;27.90;99.90;;;;;;5012536;28;20787;-76
2022/06/18 05:27:42;;;;;;;5.13;2.57;;;28.00;99.90;;;;;;5004240;28;20438;-76
2022/06/18 05:30:12;;;;;;;4.67;2.90;;;28.30;99.90;;;;;;5011787;28;20457;-76
2022/06/18 05:32:38;;;;;;;4.67;2.80;;;28.50;99.90;;;;;;5009853;28;20525;-76
2022/06/18 05:35:04;;;;;;;4.50;2.97;;;28.30;99.90;;;;;;5011585;28;20429;-76
2022/06/18 05:37:32;;;;;;;3.50;3.17;;;28.40;99.90;;;;;;5008907;28;20183;-76
2022/06/18 05:39:58;;;;;;;3.07;2.77;;;28.10;99.90;;;;;;5007210;28;20421;-76
2022/06/18 05:42:23;;;;;;;4.60;2.70;;;27.90;99.90;;;;;;5011047;28;20444;-75
2022/06/18 05:44:49;;;;;;;5.13;3.10;;;27.60;99.90;;;;;;5020051;28;20537;-76
2022/06/18 05:47:19;;;;;;;2.50;2.30;;;27.50;99.90;;;;;;5032375;28;20170;-76
2022/06/18 05:49:44;;;;;;;3.40;3.07;;;27.20;99.90;;;;;;5004758;28;20268;-75
2022/06/18 05:52:10;;;;;;;3.03;2.83;;;27.30;99.90;;;;;;5011954;28;20434;-76
2022/06/18 05:54:36;;;;;;;9.17;2.33;;;27.30;99.90;;;;;;5011340;28;20187;-76
2022/06/18 05:57:02;;;;;;;3.10;2.70;;;27.30;99.90;;;;;;5012171;28;20469;-75
2022/06/18 05:59:28;;;;;;;3.90;2.63;;;27.50;99.90;;;;;;5013978;28;20195;-76
2022/06/18 06:01:56;;;;;;;4.70;2.60;;;27.30;99.90;;;;;;5031938;28;20193;-76
2022/06/18 06:04:26;;;;;;;3.73;2.80;;;27.60;99.90;;;;;;5012833;28;20179;-76
2022/06/18 06:06:52;;;;;;;5.00;2.40;;;27.60;99.90;;;;;;4992607;28;20414;-76
2022/06/18 06:12:07;;;;;;;3.40;2.87;;;27.50;99.90;;;;;;5026096;28;20241;-76
2022/06/18 06:14:32;;;;;;;6.97;3.13;;;27.50;99.90;;;;;;5017410;28;20532;-76
2022/06/18 06:16:58;;;;;;;3.40;3.07;;;28.00;99.90;;;;;;5012515;28;20844;-76
2022/06/18 06:19:24;;;;;;;5.90;2.80;;;28.20;99.90;;;;;;5014142;28;20312;-76
2022/06/18 06:21:50;;;;;;;3.13;2.93;;;28.30;99.90;;;;;;5001315;28;20698;-76
2022/06/18 06:24:15;;;;;;;3.30;2.90;;;28.40;99.90;;;;;;4992840;28;20636;-75
2022/06/18 06:26:41;;;;;;;3.33;3.07;;;28.80;99.90;;;;;;5027279;28;20657;-76
2022/06/18 06:29:09;;;;;;;7.50;2.97;;;28.60;99.90;;;;;;5019514;28;20206;-76
2022/06/18 06:31:34;;;;;;;3.93;3.60;;;28.90;99.90;;;;;;5013291;28;20279;-77
2022/06/18 06:34:00;;;;;;;3.53;3.23;;;29.10;99.90;;;;;;5021194;28;20930;-76
2022/06/18 06:36:25;;;;;;;6.17;4.10;;;29.10;99.90;;;;;;5007724;28;20639;-75
2022/06/18 06:38:51;;;;;;;2.83;2.60;;;29.00;99.90;;;;;;5015436;28;20181;-76
2022/06/18 06:41:21;;;;;;;10.20;3.03;;;29.50;99.90;;;;;;4999559;28;20274;-76
2022/06/18 06:43:47;;;;;;;4.77;3.60;;;29.70;99.90;;;;;;4996163;28;20680;-76
2022/06/18 06:46:15;;;;;;;5.90;2.87;;;29.70;99.90;;;;;;4996220;28;20449;-75
2022/06/18 06:48:41;;;;;;;6.50;3.07;;;29.70;99.90;;;;;;4996021;28;20834;-76
2022/06/18 06:51:19;;;;;;;3.20;2.90;;;29.80;99.90;;;;;;5006162;28;20468;-76
2022/06/18 06:53:45;;;;;;;3.80;2.80;;;30.10;99.90;;;;;;5015291;28;20673;-76
2022/06/18 06:58:57;;;;;;;4.97;2.73;;;30.50;99.90;;;;;;5024869;28;20836;-76
2022/06/18 07:01:23;;;;;;;5.10;3.10;;;30.50;99.90;;;;;;5014193;28;20457;-76
2022/06/18 07:03:48;;;;;;;4.23;2.90;;;30.80;99.90;;;;;;5012790;28;20191;-76
2022/06/18 07:06:16;;;;;;;5.23;3.33;;;30.90;99.90;;;;;;5014815;28;20187;-77
2022/06/18 07:08:42;;;;;;;3.50;3.13;;;31.20;99.90;;;;;;5014902;28;20171;-76
2022/06/18 07:11:08;;;;;;;3.30;3.10;;;31.20;99.90;;;;;;5014921;28;20477;-76
2022/06/18 07:13:33;;;;;;;4.33;3.20;;;31.20;99.90;;;;;;5010716;28;20438;-75
2022/06/18 07:15:59;;;;;;;2.70;2.50;;;31.30;99.90;;;;;;4998566;28;20179;-77
2022/06/18 07:18:31;;;;;;;2.70;2.60;;;31.40;99.90;;;;;;5021705;28;20666;-76
2022/06/18 07:20:57;;;;;;;3.93;2.90;;;31.60;99.90;;;;;;5034210;28;20437;-76
2022/06/18 07:23:22;;;;;;;2.70;2.50;;;31.80;99.90;;;;;;5021418;28;20969;-76
2022/06/18 07:25:48;;;;;;;3.77;3.13;;;31.90;99.20;;;;;;4994777;28;20446;-76
2022/06/18 07:28:14;;;;;;;3.70;3.30;;;31.80;98.30;;;;;;5000502;28;20202;-76
2022/06/18 07:30:40;;;;;;;14.10;2.77;;;32.10;99.80;;;;;;5033507;28;20202;-76
2022/06/18 07:33:07;;;;;;;5.13;3.00;;;31.90;99.90;;;;;;5024371;28;20430;-75
2022/06/18 07:35:37;;;;;;;7.67;3.27;;;32.20;99.90;;;;;;5025620;28;20490;-76
2022/06/18 07:38:02;;;;;;;3.50;3.20;;;32.40;99.70;;;;;;5025723;28;21068;-75
2022/06/18 07:40:36;;;;;;;4.17;3.30;;;32.30;99.10;;;;;;5013777;28;20422;-74
2022/06/18 07:43:03;;;;;;;3.03;2.73;;;32.50;98.40;;;;;;5011515;28;20207;-75
2022/06/18 07:45:29;;;;;;;6.00;2.60;;;32.70;99.50;;;;;;5025857;28;20811;-75
2022/06/18 07:47:54;;;;;;;4.43;2.87;;;32.90;98.00;;;;;;5031650;28;20423;-75
2022/06/18 07:50:22;;;;;;;3.40;3.20;;;32.70;97.40;;;;;;5029861;28;20244;-76
2022/06/18 07:52:48;;;;;;;3.73;3.30;;;32.80;98.70;;;;;;5033331;28;20186;-76
2022/06/18 07:55:18;;;;;;;3.33;3.10;;;33.60;98.60;;;;;;5023754;28;20495;-75
2022/06/18 07:57:43;;;;;;;7.00;3.10;;;33.80;96.20;;;;;;5033221;28;20654;-76
2022/06/18 08:00:11;;;;;;;3.27;3.00;;;33.60;95.40;;;;;;4996403;28;20438;-75
2022/06/18 08:02:39;;;;;;;7.83;2.90;;;33.80;95.50;;;;;;4993850;28;20207;-76
2022/06/18 08:05:05;;;;;;;3.60;3.03;;;33.80;95.20;;;;;;5014084;28;20962;-76
2022/06/18 08:07:31;;;;;;;11.23;2.60;;;33.70;95.70;;;;;;5033117;28;20485;-76
2022/06/18 08:09:56;;;;;;;4.53;2.90;;;33.90;95.90;;;;;;5027190;28;20453;-76
2022/06/18 08:12:22;;;;;;;4.07;2.90;;;34.10;94.40;;;;;;5032978;28;20569;-75
2022/06/18 08:14:48;;;;;;;2.73;2.53;;;34.10;94.20;;;;;;5015495;28;20209;-76
2022/06/18 08:17:13;;;;;;;9.23;2.93;;;34.20;94.30;;;;;;5013538;28;20936;-76
2022/06/18 08:19:39;;;;;;;3.53;2.47;;;34.40;93.00;;;;;;5009910;28;20267;-76
2022/06/18 08:22:05;;;;;;;4.00;2.80;;;34.40;93.30;;;;;;5032752;28;20281;-76
2022/06/18 08:24:31;;;;;;;3.00;2.70;;;34.40;92.80;;;;;;5031096;28;20209;-76
2022/06/18 08:26:56;;;;;;;2.40;2.30;;;34.80;92.70;;;;;;5015115;28;20232;-76
2022/06/18 08:29:24;;;;;;;3.20;2.70;;;35.00;91.60;;;;;;5028316;28;20440;-76
2022/06/18 08:31:50;;;;;;;3.70;2.13;;;35.50;90.90;;;;;;5024875;28;20213;-76
2022/06/18 08:34:16;;;;;;;2.07;1.97;;;35.60;90.10;;;;;;5023251;28;20452;-76
2022/06/18 08:36:42;;;;;;;3.33;1.80;;;35.80;88.60;;;;;;5017227;28;20934;-76
2022/06/18 08:39:08;;;;;;;2.13;2.03;;;35.80;85.80;;;;;;5012770;28;20175;-76
2022/06/18 08:42:03;;;;;;;2.77;2.60;;;35.90;85.00;;;;;;5017781;28;20510;-75
2022/06/18 08:44:49;;;;;;;3.00;2.20;;;35.70;85.00;;;;;;5024090;28;20194;-76
2022/06/18 08:47:35;;;;;;;1.90;1.77;;;36.00;83.40;;;;;;5008119;28;20437;-76
2022/06/18 08:50:19;;;;;;;3.13;2.10;;;36.00;84.70;;;;;;5012482;28;20464;-76
2022/06/18 08:52:59;;;;;;;2.77;2.57;;;36.00;82.30;;;;;;5024633;28;20469;-76
2022/06/18 08:55:24;;;;;;;2.70;2.47;;;35.90;80.40;;;;;;5031328;28;20421;-74
2022/06/18 08:58:00;;;;;;;2.97;2.67;;;35.90;83.60;;;;;;5014812;28;20444;-76
2022/06/18 09:01:00;;;;;;;5.97;2.13;;;36.00;80.80;;;;;;5023214;28;20177;-75
2022/06/18 09:04:00;;;;;;;2.20;2.10;;;36.70;80.50;;;;;;5012588;28;20504;-76
2022/06/18 09:07:26;;;;;;;4.00;1.97;;;37.10;78.40;;;;;;5011436;28;20419;-76
2022/06/18 09:10:05;;;;;;;2.67;2.47;;;37.20;76.30;;;;;;4978948;28;20476;-76
2022/06/18 09:12:55;;;;;;;2.97;2.73;;;37.30;75.70;;;;;;5003628;28;20457;-76
2022/06/18 09:15:29;;;;;;;2.17;2.07;;;37.50;76.00;;;;;;5028391;28;20495;-75
2022/06/18 09:18:06;;;;;;;1.70;1.60;;;37.60;74.50;;;;;;5012513;28;20525;-76
2022/06/18 09:20:43;;;;;;;4.00;1.63;;;37.60;73.70;;;;;;5028517;28;20796;-76
2022/06/18 09:23:39;;;;;;;2.87;1.60;;;37.30;72.80;;;;;;5025793;28;20478;-76
2022/06/18 09:26:10;;;;;;;8.63;2.03;;;37.10;73.10;;;;;;5030378;28;20417;-76
2022/06/18 09:28:48;;;;;;;2.43;2.33;;;36.70;72.00;;;;;;5017580;28;20465;-76
2022/06/18 09:31:21;;;;;;;3.93;2.00;;;36.90;73.20;;;;;;5031185;28;20556;-76
2022/06/18 09:33:57;;;;;;;3.10;2.00;;;36.90;73.10;;;;;;5027109;28;20983;-75
2022/06/18 09:36:35;;;;;;;3.70;2.30;;;36.90;72.00;;;;;;5029202;28;20978;-76
2022/06/18 09:39:08;;;;;;;2.73;2.17;;;37.00;70.80;;;;;;5031410;28;20781;-76
2022/06/18 09:41:43;;;;;;;6.13;2.10;;;37.40;70.70;;;;;;5031101;28;20443;-76
2022/06/18 09:44:21;;;;;;;2.20;1.93;;;37.50;71.00;;;;;;5024766;28;20447;-76
2022/06/18 09:46:50;;;;;;;2.27;2.07;;;38.00;70.70;;;;;;5031722;28;20827;-76
2022/06/18 09:49:15;;;;;;;1.97;1.77;;;37.90;67.80;;;;;;5020877;28;20440;-76
2022/06/18 09:52:23;;;;;;;2.70;1.90;;;37.30;67.60;;;;;;5026828;28;20444;-76
2022/06/18 09:54:57;;;;;;;2.10;2.00;;;37.60;70.80;;;;;;5024060;28;20232;-75
2022/06/18 09:57:28;;;;;;;3.40;2.00;;;38.00;67.00;;;;;;5031720;28;20913;-76
2022/06/18 09:59:54;;;;;;;1.80;1.70;;;37.90;67.10;;;;;;5020595;28;20452;-76
2022/06/18 10:02:27;;;;;;;3.17;2.00;;;37.80;68.00;;;;;;5031338;28;20950;-76
2022/06/18 10:07:44;;;;;;;1.60;1.50;;;37.30;67.50;;;;;;5031808;28;20412;-74
2022/06/18 10:10:15;;;;;;;2.50;2.30;;;36.80;67.30;;;;;;5027038;28;20811;-75
2022/06/18 10:12:48;;;;;;;3.60;1.97;;;36.90;69.40;;;;;;5030164;28;20810;-75
2022/06/18 10:15:16;;;;;;;3.53;1.83;;;37.10;69.00;;;;;;5021208;28;20486;-74
2022/06/18 10:18:01;;;;;;;8.60;2.13;;;37.60;67.00;;;;;;5015860;28;20405;-74
2022/06/18 10:20:56;;;;;;;5.57;2.10;;;37.70;69.20;;;;;;5019315;28;20438;-76
2022/06/18 10:23:51;;;;;;;2.00;1.70;;;37.70;67.50;;;;;;5031795;28;20420;-76
2022/06/18 10:26:32;;;;;;;2.03;1.83;;;37.30;67.70;;;;;;5013419;28;20476;-75
2022/06/18 10:29:02;;;;;;;2.10;1.97;;;37.30;66.40;;;;;;5015555;28;20425;-76
2022/06/18 10:31:39;;;;;;;3.10;1.63;;;37.30;67.90;;;;;;5017349;28;20824;-76
2022/06/18 10:34:31;;;;;;;3.30;2.50;;;37.50;66.50;;;;;;5011323;28;20912;-75
2022/06/18 10:37:14;;;;;;;2.10;1.70;;;37.90;66.00;;;;;;5009742;28;20433;-76
2022/06/18 10:40:17;;;;;;;2.30;2.10;;;38.00;65.50;;;;;;5013999;28;20479;-75
2022/06/18 10:43:01;;;;;;;3.73;2.13;;;38.00;63.80;;;;;;5018412;28;20499;-76
2022/06/18 10:45:48;;;;;;;3.57;1.70;;;37.80;64.70;;;;;;5030932;28;20989;-76
2022/06/18 10:48:18;;;;;;;2.67;2.47;;;37.10;62.60;;;;;;5032335;28;20412;-75
2022/06/18 10:50:50;;;;;;;1.87;1.63;;;37.00;62.30;;;;;;5034602;28;20823;-74
2022/06/18 10:53:19;;;;;;;4.63;1.50;;;37.20;62.10;;;;;;5019280;28;20433;-75
2022/06/18 10:56:01;;;;;;;2.10;1.57;;;37.40;65.30;;;;;;5034990;28;20405;-77
2022/06/18 10:58:27;;;;;;;2.93;1.30;;;37.50;59.50;;;;;;5025892;28;21070;-78
2022/06/18 11:01:10;;;;;;;1.90;1.47;;;37.70;60.30;;;;;;5014530;28;20413;-75
2022/06/18 11:03:36;;;;;;;1.80;1.37;;;37.70;58.60;;;;;;5021200;28;20497;-75
2022/06/18 11:06:04;;;;;;;2.17;1.13;;;37.40;59.20;;;;;;5034379;28;20405;-76
2022/06/18 11:08:33;;;;;;;2.33;1.10;;;37.20;58.50;;;;;;5026139;28;20213;-75
2022/06/18 11:11:05;;;;;;;3.53;1.50;;;36.90;57.60;;;;;;5034132;28;20491;-76
2022/06/18 11:13:44;;;;;;;2.27;1.30;;;36.90;58.90;;;;;;5025337;28;20440;-75
2022/06/18 11:16:27;;;;;;;5.13;1.50;;;36.80;58.80;;;;;;5028036;28;20905;-75
2022/06/18 11:19:02;;;;;;;1.87;1.50;;;36.80;58.40;;;;;;5018867;28;20447;-75
2022/06/18 11:21:45;;;;;;;1.60;1.40;;;36.60;57.30;;;;;;5014152;28;20473;-75
2022/06/18 11:24:10;;;;;;;2.70;1.20;;;36.30;57.20;;;;;;5006229;28;20442;-76
2022/06/18 11:26:39;;;;;;;3.47;1.33;;;36.40;57.70;;;;;;4994816;28;20942;-76
2022/06/18 11:29:13;;;;;;;1.60;1.40;;;36.50;59.20;;;;;;5007195;28;20210;-76
2022/06/18 11:31:46;;;;;;;1.23;1.23;;;36.80;58.50;;;;;;5034050;28;20472;-75
2022/06/18 11:34:27;;;;;;;2.50;1.40;;;36.90;58.30;;;;;;5015795;28;20527;-76
2022/06/18 11:36:56;;;;;;;1.50;1.40;;;36.80;59.10;;;;;;5014083;28;20488;-75
2022/06/18 11:39:39;;;;;;;6.47;1.93;;;36.50;58.90;;;;;;5017106;28;20440;-76
2022/06/18 11:42:29;;;;;;;3.63;1.80;;;36.60;58.70;;;;;;5033351;28;20435;-76
2022/06/18 11:45:25;;;;;;;2.70;1.67;;;36.30;58.40;;;;;;5021608;28;20460;-77
2022/06/18 11:48:22;;;;;;;5.33;1.90;;;36.50;59.20;;;;;;5029054;28;20418;-77
2022/06/18 11:51:07;;;;;;;3.80;1.70;;;36.80;58.30;;;;;;5011750;28;20977;-76
2022/06/18 11:53:48;;;;;;;7.93;1.67;;;36.50;57.80;;;;;;5013994;28;20391;-75
2022/06/18 11:56:52;;;;;;;4.60;2.10;;;36.60;57.80;;;;;;5018215;28;20953;-75
2022/06/18 11:59:20;;;;;;;4.83;1.47;;;36.50;58.60;;;;;;5009479;28;20953;-77
2022/06/18 12:01:54;;;;;;;3.07;1.67;;;36.20;58.30;;;;;;5032830;28;20433;-75
2022/06/18 12:04:27;;;;;;;5.60;1.53;;;36.20;58.80;;;;;;5030052;28;20498;-76
2022/06/18 12:07:09;;;;;;;15.50;1.87;;;36.20;58.90;;;;;;5019232;28;20482;-75
2022/06/18 12:09:37;;;;;;;7.53;2.20;;;36.50;57.70;;;;;;4995617;28;20450;-76
2022/06/18 12:12:39;;;;;;;10.80;1.90;;;36.50;57.20;;;;;;4993859;28;20818;-76
2022/06/18 12:15:13;;;;;;;3.50;1.87;;;36.70;59.60;;;;;;5009865;28;20473;-76
2022/06/18 12:17:50;;;;;;;5.77;2.10;;;36.60;59.40;;;;;;5033591;28;20409;-75
2022/06/18 12:20:34;;;;;;;4.27;2.10;;;36.40;59.00;;;;;;5026931;28;20484;-76
2022/06/18 12:23:23;;;;;;;4.83;3.23;;;36.30;58.80;;;;;;5013188;28;20842;-77
2022/06/18 12:26:05;;;;;;;8.30;2.80;;;36.20;57.90;;;;;;5016592;28;20451;-75
2022/06/18 12:28:57;;;;;;;16.50;3.50;;;36.20;59.30;;;;;;5023634;28;20440;-75
2022/06/18 12:31:45;;;;;;;6.53;2.27;;;35.90;58.40;;;;;;5007479;28;21078;-76
2022/06/18 12:34:23;;;;;;;6.77;2.37;;;35.90;58.70;;;;;;5002260;28;20429;-76
2022/06/18 12:36:53;;;;;;;5.67;2.00;;;36.00;60.10;;;;;;5007617;28;20443;-75
2022/06/18 12:39:46;;;;;;;6.20;2.77;;;36.00;60.20;;;;;;4993457;28;20779;-77
2022/06/18 12:42:24;;;;;;;11.53;3.30;;;36.00;60.90;;;;;;5004562;28;20457;-75
2022/06/18 12:45:00;;;;;;;9.80;2.50;;;36.00;59.20;;;;;;5020294;28;20447;-75
2022/06/18 12:47:47;;;;;;;4.57;2.43;;;35.90;58.20;;;;;;5009664;28;20441;-76
2022/06/18 12:50:35;;;;;;;8.27;2.57;;;35.80;58.20;;;;;;4993039;28;20486;-75
2022/06/18 12:53:25;;;;;;;9.73;2.37;;;35.80;58.20;;;;;;5015620;28;20857;-74
2022/06/18 12:56:18;;;;;;;10.83;2.90;;;35.80;58.20;;;;;;5032529;28;20560;-75
2022/06/18 12:59:07;;;;;;;7.43;2.10;;;35.80;57.70;;;;;;5015738;28;20484;-76
2022/06/18 13:01:36;;;;;;;14.27;3.10;;;35.70;58.40;;;;;;4992953;28;20804;-76
2022/06/18 13:04:08;;;;;;;13.03;2.80;;;35.60;57.60;;;;;;5009679;28;20611;-76
2022/06/18 13:07:06;;;;;;;6.30;3.13;;;35.60;58.60;;;;;;5011385;28;20457;-77
2022/06/18 13:09:44;;;;;;;10.67;3.20;;;35.30;58.80;;;;;;5007064;28;20476;-76
2022/06/18 13:12:37;;;;;;;8.57;2.63;;;35.20;60.30;;;;;;4992263;28;20855;-75
2022/06/18 13:15:28;;;;;;;11.03;3.03;;;35.30;60.40;;;;;;5022927;28;20787;-74
2022/06/18 13:18:20;;;;;;;10.30;3.30;;;35.10;59.80;;;;;;5028917;28;20430;-75
2022/06/18 13:20:56;;;;;;;9.20;2.53;;;35.30;60.70;;;;;;5025838;28;20447;-74
2022/06/18 13:29:44;;;;;;;12.83;2.60;;;35.10;61.30;;;;;;4996495;28;20453;-75
2022/06/18 13:32:29;;;;;;;12.50;3.37;;;35.10;62.40;;;;;;4964404;28;20477;-75
2022/06/18 13:35:04;;;;;;;14.10;3.07;;;35.30;60.10;;;;;;5001388;28;20438;-75
2022/06/18 13:37:48;;;;;;;19.00;3.20;;;35.20;60.70;;;;;;4992583;28;20402;-75
2022/06/18 13:40:28;;;;;;;15.10;3.43;;;35.10;62.10;;;;;;5000376;28;20432;-75
2022/06/18 13:43:27;;;;;;;10.97;2.60;;;35.20;63.30;;;;;;5031636;28;20443;-76
2022/06/18 13:46:17;;;;;;;10.90;3.43;;;35.10;62.40;;;;;;5029108;28;20423;-76
2022/06/18 13:48:55;;;;;;;15.17;3.23;;;35.20;63.20;;;;;;5034397;28;20420;-76
2022/06/18 13:51:28;;;;;;;9.30;2.67;;;35.40;64.20;;;;;;4996374;28;20473;-77
2022/06/18 13:54:06;;;;;;;13.10;3.50;;;35.40;62.40;;;;;;4996531;28;20516;-74
2022/06/18 13:56:32;;;;;;;8.67;3.17;;;35.50;61.90;;;;;;5032964;28;20420;-77
2022/06/18 13:59:00;;;;;;;7.60;3.80;;;35.50;63.40;;;;;;5029942;28;20800;-75
2022/06/18 14:01:27;;;;;;;4.23;3.13;;;35.40;64.60;;;;;;5028861;28;20456;-76
2022/06/18 14:04:02;;;;;;;9.83;3.27;;;35.30;64.40;;;;;;5035772;28;20502;-76
2022/06/18 14:06:28;;;;;;;10.83;3.07;;;35.10;65.00;;;;;;5028083;28;20511;-76
2022/06/18 14:09:12;;;;;;;14.37;3.67;;;34.90;63.70;;;;;;5035792;28;20495;-76
2022/06/18 14:11:41;;;;;;;12.83;3.50;;;34.90;63.90;;;;;;5025012;28;20468;-76
2022/06/18 14:14:12;;;;;;;19.40;4.10;;;35.00;67.40;;;;;;5027338;28;20524;-76
2022/06/18 14:16:43;;;;;;;12.80;3.20;;;34.90;64.70;;;;;;5025664;28;20435;-74
2022/06/18 14:19:13;;;;;;;8.43;2.80;;;34.80;66.50;;;;;;5035002;28;20765;-74
2022/06/18 14:21:40;;;;;;;14.20;3.83;;;34.80;65.70;;;;;;5024948;28;20453;-75
2022/06/18 14:24:06;;;;;;;15.20;4.23;;;34.70;65.10;;;;;;5034406;28;20520;-76
2022/06/18 14:26:48;;;;;;;16.10;3.90;;;34.80;66.20;;;;;;5027380;28;20444;-75
2022/06/18 14:29:16;;;;;;;11.47;4.20;;;34.80;63.90;;;;;;5030015;28;20428;-75
2022/06/18 14:32:06;;;;;;;12.20;3.67;;;34.80;63.30;;;;;;5016312;28;20488;-76
2022/06/18 14:34:49;;;;;;;12.30;3.33;;;34.80;65.30;;;;;;4995302;28;20417;-75
2022/06/18 14:37:15;;;;;;;11.80;3.37;;;34.60;66.30;;;;;;4995703;28;20418;-76
2022/06/18 14:39:56;;;;;;;19.67;3.80;;;34.60;66.20;;;;;;4995672;28;20410;-74
2022/06/18 14:42:54;;;;;;;16.57;3.50;;;34.60;66.70;;;;;;4995397;28;20210;-75
2022/06/18 14:45:32;;;;;;;8.03;3.53;;;34.70;67.00;;;;;;4983639;28;20472;-72
2022/06/18 14:48:23;;;;;;;9.13;3.03;;;34.70;67.10;;;;;;5010718;28;20497;-76
2022/06/18 14:51:15;;;;;;;12.47;3.90;;;34.70;67.20;;;;;;4994990;28;20453;-74
2022/06/18 14:54:00;;;;;;;13.73;3.60;;;34.60;67.70;;;;;;4995411;28;20391;-76
2022/06/18 14:56:53;;;;;;;8.27;2.97;;;34.60;68.00;;;;;;4995385;28;20453;-76
2022/06/18 14:59:24;;;;;;;14.37;4.20;;;34.60;67.40;;;;;;4994256;28;20410;-73
2022/06/18 15:02:16;;;;;;;14.73;4.00;;;34.60;68.70;;;;;;4994603;28;20444;-76
2022/06/18 15:04:49;;;;;;;9.80;3.57;;;34.60;66.10;;;;;;4995048;28;20406;-76
2022/06/18 15:07:14;;;;;;;10.13;3.20;;;34.60;66.80;;;;;;4994818;28;20780;-73